sensor_id;sensor_type;location;lat;lon;timestamp;temperature;humidity
19206;DHT22;59358;52.134;5.596;2023-01-31T00:00:53;3.20;99.90
19206;DHT22;59358;52.134;5.596;2023-01-31T00:03:21;3.20;99.90
19206;DHT22;59358;52.134;5.596;2023-01-31T00:05:48;3.10;99.90
19206;DHT22;59358;52.134;5.596;2023-01-31T00:08:15;3.10;99.90
19206;DHT22;59358;52.134;5.596;2023-01-31T00:10:42;3.10;99.90
19206;DHT22;59358;52.134;5.596;2023-01-31T00:13:09;3.10;99.90
19206;DHT22;59358;52.134;5.596;2023-01-31T00:15:36;3.00;99.90
19206;DHT22;59358;52.134;5.596;2023-01-31T00:18:03;3.00;99.90
19206;DHT22;59358;52.134;5.596;2023-01-31T00:20:31;3.00;99.90
19206;DHT22;59358;52.134;5.596;2023-01-31T00:22:58;3.00;99.90
19206;DHT22;59358;52.134;5.596;2023-01-31T00:25:25;3.00;99.90
19206;DHT22;59358;52.134;5.596;2023-01-31T00:27:52;3.00;99.90
19206;DHT22;59358;52.134;5.596;2023-01-31T00:30:19;3.00;99.90
19206;DHT22;59358;52.134;5.596;2023-01-31T00:32:46;2.90;99.90
19206;DHT22;59358;52.134;5.596;2023-01-31T00:35:13;2.90;99.90
19206;DHT22;59358;52.134;5.596;2023-01-31T00:37:41;2.90;99.90
19206;DHT22;59358;52.134;5.596;2023-01-31T00:40:09;2.90;99.90
19206;DHT22;59358;52.134;5.596;2023-01-31T00:42:36;2.90;99.90
19206;DHT22;59358;52.134;5.596;2023-01-31T00:45:03;2.90;99.90
19206;DHT22;59358;52.134;5.596;2023-01-31T00:47:30;2.80;99.90
19206;DHT22;59358;52.134;5.596;2023-01-31T00:49:57;2.80;99.90
19206;DHT22;59358;52.134;5.596;2023-01-31T00:52:26;2.90;99.90
19206;DHT22;59358;52.134;5.596;2023-01-31T00:54:54;2.90;99.90
19206;DHT22;59358;52.134;5.596;2023-01-31T00:57:21;2.90;99.90
19206;DHT22;59358;52.134;5.596;2023-01-31T01:00:01;2.90;99.90
19206;DHT22;59358;52.134;5.596;2023-01-31T01:02:28;2.80;99.90
19206;DHT22;59358;52.134;5.596;2023-01-31T01:04:55;2.80;99.90
19206;DHT22;59358;52.134;5.596;2023-01-31T01:07:22;2.80;99.90
19206;DHT22;59358;52.134;5.596;2023-01-31T01:09:49;2.70;99.90
19206;DHT22;59358;52.134;5.596;2023-01-31T01:12:18;2.70;99.90
19206;DHT22;59358;52.134;5.596;2023-01-31T01:14:45;2.70;99.90
19206;DHT22;59358;52.134;5.596;2023-01-31T01:17:11;2.70;99.90
19206;DHT22;59358;52.134;5.596;2023-01-31T01:19:38;2.80;99.90
19206;DHT22;59358;52.134;5.596;2023-01-31T01:22:06;2.80;99.90
19206;DHT22;59358;52.134;5.596;2023-01-31T01:24:32;2.90;99.90
19206;DHT22;59358;52.134;5.596;2023-01-31T01:26:59;2.80;99.90
19206;DHT22;59358;52.134;5.596;2023-01-31T01:29:30;2.80;99.90
19206;DHT22;59358;52.134;5.596;2023-01-31T01:31:57;2.90;99.90
19206;DHT22;59358;52.134;5.596;2023-01-31T01:34:24;2.80;99.90
19206;DHT22;59358;52.134;5.596;2023-01-31T01:36:51;2.80;99.90
19206;DHT22;59358;52.134;5.596;2023-01-31T01:39:18;2.80;99.90
19206;DHT22;59358;52.134;5.596;2023-01-31T01:41:45;2.70;99.90
19206;DHT22;59358;52.134;5.596;2023-01-31T01:44:49;2.70;99.90
19206;DHT22;59358;52.134;5.596;2023-01-31T01:47:22;2.70;99.90
19206;DHT22;59358;52.134;5.596;2023-01-31T01:49:53;2.60;99.90
19206;DHT22;59358;52.134;5.596;2023-01-31T01:52:22;2.70;99.90
19206;DHT22;59358;52.134;5.596;2023-01-31T01:54:55;2.60;99.90
19206;DHT22;59358;52.134;5.596;2023-01-31T01:57:26;2.60;99.90
19206;DHT22;59358;52.134;5.596;2023-01-31T02:00:00;2.70;99.90
19206;DHT22;59358;52.134;5.596;2023-01-31T02:02:30;2.70;99.90
19206;DHT22;59358;52.134;5.596;2023-01-31T02:04:56;2.80;99.90
19206;DHT22;59358;52.134;5.596;2023-01-31T02:07:23;2.90;99.90
19206;DHT22;59358;52.134;5.596;2023-01-31T02:09:54;3.00;99.90
19206;DHT22;59358;52.134;5.596;2023-01-31T02:12:21;3.00;99.90
19206;DHT22;59358;52.134;5.596;2023-01-31T02:14:49;3.00;99.90
19206;DHT22;59358;52.134;5.596;2023-01-31T02:17:19;3.10;99.90
19206;DHT22;59358;52.134;5.596;2023-01-31T02:19:56;3.10;99.90
19206;DHT22;59358;52.134;5.596;2023-01-31T02:22:30;3.20;99.90
19206;DHT22;59358;52.134;5.596;2023-01-31T02:25:31;3.20;99.90
19206;DHT22;59358;52.134;5.596;2023-01-31T02:34:23;3.40;99.90
19206;DHT22;59358;52.134;5.596;2023-01-31T02:37:03;3.40;99.90
19206;DHT22;59358;52.134;5.596;2023-01-31T02:39:40;3.40;99.90
19206;DHT22;59358;52.134;5.596;2023-01-31T02:42:14;3.50;99.90
19206;DHT22;59358;52.134;5.596;2023-01-31T02:44:50;3.50;99.90
19206;DHT22;59358;52.134;5.596;2023-01-31T02:47:48;3.60;99.90
19206;DHT22;59358;52.134;5.596;2023-01-31T02:50:23;3.60;99.90
19206;DHT22;59358;52.134;5.596;2023-01-31T02:52:55;3.70;99.90
19206;DHT22;59358;52.134;5.596;2023-01-31T02:55:27;3.70;99.90
19206;DHT22;59358;52.134;5.596;2023-01-31T02:58:15;3.80;99.90
19206;DHT22;59358;52.134;5.596;2023-01-31T03:00:45;3.90;99.90
19206;DHT22;59358;52.134;5.596;2023-01-31T03:03:18;3.80;99.90
19206;DHT22;59358;52.134;5.596;2023-01-31T03:06:09;3.90;99.90
19206;DHT22;59358;52.134;5.596;2023-01-31T03:08:42;4.00;99.90
19206;DHT22;59358;52.134;5.596;2023-01-31T03:11:10;4.00;99.90
19206;DHT22;59358;52.134;5.596;2023-01-31T03:13:46;4.00;99.90
19206;DHT22;59358;52.134;5.596;2023-01-31T03:16:24;4.10;99.90
19206;DHT22;59358;52.134;5.596;2023-01-31T03:19:14;4.20;99.90
19206;DHT22;59358;52.134;5.596;2023-01-31T03:21:46;4.20;99.90
19206;DHT22;59358;52.134;5.596;2023-01-31T03:24:15;4.30;99.90
19206;DHT22;59358;52.134;5.596;2023-01-31T03:26:43;4.40;99.90
19206;DHT22;59358;52.134;5.596;2023-01-31T03:29:14;4.40;99.90
19206;DHT22;59358;52.134;5.596;2023-01-31T03:31:46;4.50;99.90
19206;DHT22;59358;52.134;5.596;2023-01-31T03:34:14;4.50;99.90
19206;DHT22;59358;52.134;5.596;2023-01-31T03:36:50;4.60;99.90
19206;DHT22;59358;52.134;5.596;2023-01-31T03:39:28;4.60;99.90
19206;DHT22;59358;52.134;5.596;2023-01-31T03:41:58;4.60;99.90
19206;DHT22;59358;52.134;5.596;2023-01-31T03:44:36;4.70;99.90
19206;DHT22;59358;52.134;5.596;2023-01-31T03:47:10;4.70;99.90
19206;DHT22;59358;52.134;5.596;2023-01-31T03:49:40;4.70;99.90
19206;DHT22;59358;52.134;5.596;2023-01-31T03:52:10;4.80;99.90
19206;DHT22;59358;52.134;5.596;2023-01-31T03:54:41;4.70;99.90
19206;DHT22;59358;52.134;5.596;2023-01-31T03:57:13;4.70;99.90
19206;DHT22;59358;52.134;5.596;2023-01-31T03:59:44;4.80;99.90
19206;DHT22;59358;52.134;5.596;2023-01-31T04:02:15;4.80;99.90
19206;DHT22;59358;52.134;5.596;2023-01-31T04:04:46;4.90;99.90
19206;DHT22;59358;52.134;5.596;2023-01-31T04:07:15;4.90;99.90
19206;DHT22;59358;52.134;5.596;2023-01-31T04:09:42;4.90;99.90
19206;DHT22;59358;52.134;5.596;2023-01-31T04:12:11;5.00;99.90
19206;DHT22;59358;52.134;5.596;2023-01-31T04:14:40;5.00;99.90
19206;DHT22;59358;52.134;5.596;2023-01-31T04:17:07;5.00;99.90
19206;DHT22;59358;52.134;5.596;2023-01-31T04:19:33;5.10;99.90
19206;DHT22;59358;52.134;5.596;2023-01-31T04:22:00;5.10;99.90
19206;DHT22;59358;52.134;5.596;2023-01-31T04:24:28;5.10;99.90
19206;DHT22;59358;52.134;5.596;2023-01-31T04:26:55;5.10;99.90
19206;DHT22;59358;52.134;5.596;2023-01-31T04:29:22;5.10;99.90
19206;DHT22;59358;52.134;5.596;2023-01-31T04:31:49;5.20;99.90
19206;DHT22;59358;52.134;5.596;2023-01-31T04:34:16;5.20;99.90
19206;DHT22;59358;52.134;5.596;2023-01-31T04:36:42;5.20;99.90
19206;DHT22;59358;52.134;5.596;2023-01-31T04:39:10;5.30;99.90
19206;DHT22;59358;52.134;5.596;2023-01-31T04:41:39;5.20;99.90
19206;DHT22;59358;52.134;5.596;2023-01-31T04:44:06;5.40;99.90
19206;DHT22;59358;52.134;5.596;2023-01-31T04:46:33;5.30;99.90
19206;DHT22;59358;52.134;5.596;2023-01-31T04:49:00;5.30;99.90
19206;DHT22;59358;52.134;5.596;2023-01-31T04:51:26;5.30;99.90
19206;DHT22;59358;52.134;5.596;2023-01-31T04:53:53;5.30;99.90
19206;DHT22;59358;52.134;5.596;2023-01-31T04:56:20;5.30;99.90
19206;DHT22;59358;52.134;5.596;2023-01-31T04:58:48;5.30;99.90
19206;DHT22;59358;52.134;5.596;2023-01-31T05:01:15;5.30;99.90
19206;DHT22;59358;52.134;5.596;2023-01-31T05:03:42;5.30;99.90
19206;DHT22;59358;52.134;5.596;2023-01-31T05:06:09;5.30;99.90
19206;DHT22;59358;52.134;5.596;2023-01-31T05:08:36;5.30;99.90
19206;DHT22;59358;52.134;5.596;2023-01-31T05:11:03;5.30;99.90
19206;DHT22;59358;52.134;5.596;2023-01-31T05:13:32;5.30;99.90
19206;DHT22;59358;52.134;5.596;2023-01-31T05:16:05;5.30;99.90
19206;DHT22;59358;52.134;5.596;2023-01-31T05:18:32;5.30;99.90
19206;DHT22;59358;52.134;5.596;2023-01-31T05:20:59;5.30;99.90
19206;DHT22;59358;52.134;5.596;2023-01-31T05:23:26;5.30;99.90
19206;DHT22;59358;52.134;5.596;2023-01-31T05:25:53;5.30;99.90
19206;DHT22;59358;52.134;5.596;2023-01-31T05:28:20;5.30;99.90
19206;DHT22;59358;52.134;5.596;2023-01-31T05:30:48;5.30;99.90
19206;DHT22;59358;52.134;5.596;2023-01-31T05:33:16;5.30;99.90
19206;DHT22;59358;52.134;5.596;2023-01-31T05:35:45;5.40;99.90
19206;DHT22;59358;52.134;5.596;2023-01-31T05:38:12;5.30;99.90
19206;DHT22;59358;52.134;5.596;2023-01-31T05:40:38;5.30;99.90
19206;DHT22;59358;52.134;5.596;2023-01-31T05:43:05;5.40;99.90
19206;DHT22;59358;52.134;5.596;2023-01-31T05:45:32;5.30;99.90
19206;DHT22;59358;52.134;5.596;2023-01-31T05:47:59;5.40;99.90
19206;DHT22;59358;52.134;5.596;2023-01-31T05:50:27;5.40;99.90
19206;DHT22;59358;52.134;5.596;2023-01-31T05:52:56;5.40;99.90
19206;DHT22;59358;52.134;5.596;2023-01-31T05:55:24;5.40;99.90
19206;DHT22;59358;52.134;5.596;2023-01-31T05:57:51;5.30;99.90
19206;DHT22;59358;52.134;5.596;2023-01-31T06:00:19;5.40;99.90
19206;DHT22;59358;52.134;5.596;2023-01-31T06:02:46;5.40;99.90
19206;DHT22;59358;52.134;5.596;2023-01-31T06:05:14;5.50;99.90
19206;DHT22;59358;52.134;5.596;2023-01-31T06:07:42;5.50;99.90
19206;DHT22;59358;52.134;5.596;2023-01-31T06:10:11;5.40;99.90
19206;DHT22;59358;52.134;5.596;2023-01-31T06:12:39;5.40;99.90
19206;DHT22;59358;52.134;5.596;2023-01-31T06:15:07;5.40;99.90
19206;DHT22;59358;52.134;5.596;2023-01-31T06:17:34;5.40;99.90
19206;DHT22;59358;52.134;5.596;2023-01-31T06:20:01;5.50;99.90
19206;DHT22;59358;52.134;5.596;2023-01-31T06:22:28;5.60;99.90
19206;DHT22;59358;52.134;5.596;2023-01-31T06:24:56;5.50;99.90
19206;DHT22;59358;52.134;5.596;2023-01-31T06:27:23;5.50;99.90
19206;DHT22;59358;52.134;5.596;2023-01-31T06:29:50;5.50;99.90
19206;DHT22;59358;52.134;5.596;2023-01-31T06:32:16;5.50;99.90
19206;DHT22;59358;52.134;5.596;2023-01-31T06:34:43;5.50;99.90
19206;DHT22;59358;52.134;5.596;2023-01-31T06:37:10;5.50;99.90
19206;DHT22;59358;52.134;5.596;2023-01-31T06:39:37;5.50;99.90
19206;DHT22;59358;52.134;5.596;2023-01-31T06:42:06;5.50;99.90
19206;DHT22;59358;52.134;5.596;2023-01-31T06:44:33;5.50;99.90
19206;DHT22;59358;52.134;5.596;2023-01-31T06:47:00;5.50;99.90
19206;DHT22;59358;52.134;5.596;2023-01-31T06:49:27;5.50;99.90
19206;DHT22;59358;52.134;5.596;2023-01-31T06:51:54;5.50;99.90
19206;DHT22;59358;52.134;5.596;2023-01-31T06:54:21;5.50;99.90
19206;DHT22;59358;52.134;5.596;2023-01-31T06:56:47;5.50;99.90
19206;DHT22;59358;52.134;5.596;2023-01-31T06:59:16;5.50;99.90
19206;DHT22;59358;52.134;5.596;2023-01-31T07:01:42;5.50;99.90
19206;DHT22;59358;52.134;5.596;2023-01-31T07:04:09;5.50;99.90
19206;DHT22;59358;52.134;5.596;2023-01-31T07:06:36;5.40;99.90
19206;DHT22;59358;52.134;5.596;2023-01-31T07:09:03;5.40;99.90
19206;DHT22;59358;52.134;5.596;2023-01-31T07:11:30;5.50;99.90
19206;DHT22;59358;52.134;5.596;2023-01-31T07:13:56;5.50;99.90
19206;DHT22;59358;52.134;5.596;2023-01-31T07:16:25;5.60;99.90
19206;DHT22;59358;52.134;5.596;2023-01-31T07:18:52;5.60;99.90
19206;DHT22;59358;52.134;5.596;2023-01-31T07:21:19;5.50;99.90
19206;DHT22;59358;52.134;5.596;2023-01-31T07:23:46;5.60;99.90
19206;DHT22;59358;52.134;5.596;2023-01-31T07:26:13;5.60;99.90
19206;DHT22;59358;52.134;5.596;2023-01-31T07:28:40;5.60;99.90
19206;DHT22;59358;52.134;5.596;2023-01-31T07:31:09;5.60;99.90
19206;DHT22;59358;52.134;5.596;2023-01-31T07:33:38;5.60;99.90
19206;DHT22;59358;52.134;5.596;2023-01-31T07:36:08;5.60;99.90
19206;DHT22;59358;52.134;5.596;2023-01-31T07:38:35;5.60;99.90
19206;DHT22;59358;52.134;5.596;2023-01-31T07:41:03;5.60;99.90
19206;DHT22;59358;52.134;5.596;2023-01-31T07:43:31;5.60;99.90
19206;DHT22;59358;52.134;5.596;2023-01-31T07:45:57;5.60;99.90
19206;DHT22;59358;52.134;5.596;2023-01-31T07:48:24;5.70;99.90
19206;DHT22;59358;52.134;5.596;2023-01-31T07:50:56;5.70;99.90
19206;DHT22;59358;52.134;5.596;2023-01-31T07:53:24;5.80;99.90
19206;DHT22;59358;52.134;5.596;2023-01-31T07:55:52;5.80;99.90
19206;DHT22;59358;52.134;5.596;2023-01-31T07:58:19;5.80;99.90
19206;DHT22;59358;52.134;5.596;2023-01-31T08:00:45;5.80;99.90
19206;DHT22;59358;52.134;5.596;2023-01-31T08:03:30;5.90;99.90
19206;DHT22;59358;52.134;5.596;2023-01-31T08:06:05;5.90;99.90
19206;DHT22;59358;52.134;5.596;2023-01-31T08:08:34;5.90;99.90
19206;DHT22;59358;52.134;5.596;2023-01-31T08:11:01;5.90;99.90
19206;DHT22;59358;52.134;5.596;2023-01-31T08:13:29;5.90;99.90
19206;DHT22;59358;52.134;5.596;2023-01-31T08:15:56;5.90;99.90
19206;DHT22;59358;52.134;5.596;2023-01-31T08:18:23;6.00;99.90
19206;DHT22;59358;52.134;5.596;2023-01-31T08:20:50;6.00;99.90
19206;DHT22;59358;52.134;5.596;2023-01-31T08:23:18;6.00;99.90
19206;DHT22;59358;52.134;5.596;2023-01-31T08:25:45;5.90;99.90
19206;DHT22;59358;52.134;5.596;2023-01-31T08:28:12;5.90;99.90
19206;DHT22;59358;52.134;5.596;2023-01-31T08:30:40;5.90;99.90
19206;DHT22;59358;52.134;5.596;2023-01-31T08:33:07;5.90;99.90
19206;DHT22;59358;52.134;5.596;2023-01-31T08:35:35;5.90;99.90
19206;DHT22;59358;52.134;5.596;2023-01-31T08:38:02;5.90;99.90
19206;DHT22;59358;52.134;5.596;2023-01-31T08:40:31;6.00;99.90
19206;DHT22;59358;52.134;5.596;2023-01-31T08:42:59;6.00;99.90
19206;DHT22;59358;52.134;5.596;2023-01-31T08:45:26;6.00;99.90
19206;DHT22;59358;52.134;5.596;2023-01-31T08:47:53;6.00;99.90
19206;DHT22;59358;52.134;5.596;2023-01-31T08:50:21;6.10;99.90
19206;DHT22;59358;52.134;5.596;2023-01-31T08:52:52;6.20;99.90
19206;DHT22;59358;52.134;5.596;2023-01-31T08:55:19;6.20;99.90
19206;DHT22;59358;52.134;5.596;2023-01-31T08:57:47;6.20;99.90
19206;DHT22;59358;52.134;5.596;2023-01-31T09:00:15;6.30;99.90
19206;DHT22;59358;52.134;5.596;2023-01-31T09:02:42;6.30;99.90
19206;DHT22;59358;52.134;5.596;2023-01-31T09:05:10;6.30;99.90
19206;DHT22;59358;52.134;5.596;2023-01-31T09:07:37;6.40;99.90
19206;DHT22;59358;52.134;5.596;2023-01-31T09:10:05;6.40;99.90
19206;DHT22;59358;52.134;5.596;2023-01-31T09:12:33;6.30;99.90
19206;DHT22;59358;52.134;5.596;2023-01-31T09:15:02;6.40;99.90
19206;DHT22;59358;52.134;5.596;2023-01-31T09:17:29;6.40;99.90
19206;DHT22;59358;52.134;5.596;2023-01-31T09:19:56;6.40;99.90
19206;DHT22;59358;52.134;5.596;2023-01-31T09:22:23;6.40;99.90
19206;DHT22;59358;52.134;5.596;2023-01-31T09:24:50;6.30;99.90
19206;DHT22;59358;52.134;5.596;2023-01-31T09:27:17;6.40;99.90
19206;DHT22;59358;52.134;5.596;2023-01-31T09:29:44;6.50;99.90
19206;DHT22;59358;52.134;5.596;2023-01-31T09:32:12;6.50;99.90
19206;DHT22;59358;52.134;5.596;2023-01-31T09:34:39;6.60;99.90
19206;DHT22;59358;52.134;5.596;2023-01-31T09:37:05;6.60;99.90
19206;DHT22;59358;52.134;5.596;2023-01-31T09:39:32;6.60;99.90
19206;DHT22;59358;52.134;5.596;2023-01-31T09:42:05;6.70;99.90
19206;DHT22;59358;52.134;5.596;2023-01-31T09:44:39;6.70;99.90
19206;DHT22;59358;52.134;5.596;2023-01-31T09:47:12;6.70;99.90
19206;DHT22;59358;52.134;5.596;2023-01-31T09:49:45;6.70;99.90
19206;DHT22;59358;52.134;5.596;2023-01-31T09:52:12;6.70;99.90
19206;DHT22;59358;52.134;5.596;2023-01-31T09:54:39;6.60;99.90
19206;DHT22;59358;52.134;5.596;2023-01-31T09:57:15;6.60;99.90
19206;DHT22;59358;52.134;5.596;2023-01-31T09:59:48;6.60;99.90
19206;DHT22;59358;52.134;5.596;2023-01-31T10:02:50;6.60;99.90
19206;DHT22;59358;52.134;5.596;2023-01-31T10:05:25;6.60;99.90
19206;DHT22;59358;52.134;5.596;2023-01-31T10:08:05;6.70;99.90
19206;DHT22;59358;52.134;5.596;2023-01-31T10:10:37;6.70;99.90
19206;DHT22;59358;52.134;5.596;2023-01-31T10:13:10;6.80;99.90
19206;DHT22;59358;52.134;5.596;2023-01-31T10:15:42;6.80;99.90
19206;DHT22;59358;52.134;5.596;2023-01-31T10:18:15;6.80;99.90
19206;DHT22;59358;52.134;5.596;2023-01-31T10:20:47;6.70;99.90
19206;DHT22;59358;52.134;5.596;2023-01-31T10:23:19;6.70;99.90
19206;DHT22;59358;52.134;5.596;2023-01-31T10:25:52;6.80;99.90
19206;DHT22;59358;52.134;5.596;2023-01-31T10:28:24;6.90;99.90
19206;DHT22;59358;52.134;5.596;2023-01-31T10:30:57;7.00;99.90
19206;DHT22;59358;52.134;5.596;2023-01-31T10:33:34;7.10;99.90
19206;DHT22;59358;52.134;5.596;2023-01-31T10:36:04;7.10;99.90
19206;DHT22;59358;52.134;5.596;2023-01-31T10:38:39;7.10;99.90
19206;DHT22;59358;52.134;5.596;2023-01-31T10:41:12;7.00;99.90
19206;DHT22;59358;52.134;5.596;2023-01-31T10:43:46;7.10;99.90
19206;DHT22;59358;52.134;5.596;2023-01-31T10:46:15;7.10;99.90
19206;DHT22;59358;52.134;5.596;2023-01-31T10:48:44;7.00;99.90
19206;DHT22;59358;52.134;5.596;2023-01-31T10:54:20;7.10;99.90
19206;DHT22;59358;52.134;5.596;2023-01-31T10:56:50;7.20;99.90
19206;DHT22;59358;52.134;5.596;2023-01-31T10:59:21;7.30;99.90
19206;DHT22;59358;52.134;5.596;2023-01-31T11:01:50;7.20;99.90
19206;DHT22;59358;52.134;5.596;2023-01-31T11:04:28;7.30;99.90
19206;DHT22;59358;52.134;5.596;2023-01-31T11:06:57;7.30;99.90
19206;DHT22;59358;52.134;5.596;2023-01-31T11:09:28;7.30;99.90
19206;DHT22;59358;52.134;5.596;2023-01-31T11:11:57;7.20;99.90
19206;DHT22;59358;52.134;5.596;2023-01-31T11:14:24;7.20;99.90
19206;DHT22;59358;52.134;5.596;2023-01-31T11:16:58;7.20;99.90
19206;DHT22;59358;52.134;5.596;2023-01-31T11:19:32;7.10;99.90
19206;DHT22;59358;52.134;5.596;2023-01-31T11:21:59;7.10;99.90
19206;DHT22;59358;52.134;5.596;2023-01-31T11:24:29;7.10;99.90
19206;DHT22;59358;52.134;5.596;2023-01-31T11:27:01;7.20;99.90
19206;DHT22;59358;52.134;5.596;2023-01-31T11:29:30;7.10;99.90
19206;DHT22;59358;52.134;5.596;2023-01-31T11:32:00;7.00;99.90
19206;DHT22;59358;52.134;5.596;2023-01-31T11:34:30;7.00;99.90
19206;DHT22;59358;52.134;5.596;2023-01-31T11:37:11;7.10;99.90
19206;DHT22;59358;52.134;5.596;2023-01-31T11:39:39;7.20;99.90
19206;DHT22;59358;52.134;5.596;2023-01-31T11:42:10;7.20;99.90
19206;DHT22;59358;52.134;5.596;2023-01-31T11:44:56;7.20;99.90
19206;DHT22;59358;52.134;5.596;2023-01-31T11:47:31;7.10;99.90
19206;DHT22;59358;52.134;5.596;2023-01-31T11:50:01;7.10;99.90
19206;DHT22;59358;52.134;5.596;2023-01-31T11:52:30;7.10;99.90
19206;DHT22;59358;52.134;5.596;2023-01-31T11:54:59;7.10;99.90
19206;DHT22;59358;52.134;5.596;2023-01-31T11:57:30;7.10;99.90
19206;DHT22;59358;52.134;5.596;2023-01-31T11:59:59;7.10;99.90
19206;DHT22;59358;52.134;5.596;2023-01-31T12:02:34;7.20;99.90
19206;DHT22;59358;52.134;5.596;2023-01-31T12:05:09;7.20;99.90
19206;DHT22;59358;52.134;5.596;2023-01-31T12:07:42;7.20;99.90
19206;DHT22;59358;52.134;5.596;2023-01-31T12:10:28;7.30;99.90
19206;DHT22;59358;52.134;5.596;2023-01-31T12:12:58;7.30;99.90
19206;DHT22;59358;52.134;5.596;2023-01-31T12:15:27;7.30;99.90
19206;DHT22;59358;52.134;5.596;2023-01-31T12:17:57;7.30;99.90
19206;DHT22;59358;52.134;5.596;2023-01-31T12:20:35;7.40;99.90
19206;DHT22;59358;52.134;5.596;2023-01-31T12:23:17;7.40;99.90
19206;DHT22;59358;52.134;5.596;2023-01-31T12:25:54;7.40;99.90
19206;DHT22;59358;52.134;5.596;2023-01-31T12:28:31;7.40;99.90
19206;DHT22;59358;52.134;5.596;2023-01-31T12:31:17;7.50;99.90
19206;DHT22;59358;52.134;5.596;2023-01-31T12:34:01;7.60;99.90
19206;DHT22;59358;52.134;5.596;2023-01-31T12:36:46;7.70;99.90
19206;DHT22;59358;52.134;5.596;2023-01-31T12:39:27;7.80;99.90
19206;DHT22;59358;52.134;5.596;2023-01-31T12:42:21;7.70;99.90
19206;DHT22;59358;52.134;5.596;2023-01-31T12:45:04;7.80;99.90
19206;DHT22;59358;52.134;5.596;2023-01-31T12:47:49;7.80;99.90
19206;DHT22;59358;52.134;5.596;2023-01-31T12:50:25;7.70;99.90
19206;DHT22;59358;52.134;5.596;2023-01-31T12:56:15;7.90;99.90
19206;DHT22;59358;52.134;5.596;2023-01-31T12:58:49;8.10;99.90
19206;DHT22;59358;52.134;5.596;2023-01-31T13:01:26;8.20;99.90
19206;DHT22;59358;52.134;5.596;2023-01-31T13:04:04;8.10;99.90
19206;DHT22;59358;52.134;5.596;2023-01-31T13:06:41;8.20;99.90
19206;DHT22;59358;52.134;5.596;2023-01-31T13:09:15;8.30;99.90
19206;DHT22;59358;52.134;5.596;2023-01-31T13:11:47;8.30;99.90
19206;DHT22;59358;52.134;5.596;2023-01-31T13:14:19;8.30;99.90
19206;DHT22;59358;52.134;5.596;2023-01-31T13:16:48;8.30;99.90
19206;DHT22;59358;52.134;5.596;2023-01-31T13:19:22;8.40;99.90
19206;DHT22;59358;52.134;5.596;2023-01-31T13:21:54;8.40;99.90
19206;DHT22;59358;52.134;5.596;2023-01-31T13:24:28;8.40;99.90
19206;DHT22;59358;52.134;5.596;2023-01-31T13:27:01;8.40;99.90
19206;DHT22;59358;52.134;5.596;2023-01-31T13:29:33;8.40;99.90
19206;DHT22;59358;52.134;5.596;2023-01-31T13:32:05;8.50;99.90
19206;DHT22;59358;52.134;5.596;2023-01-31T13:34:40;8.60;99.90
19206;DHT22;59358;52.134;5.596;2023-01-31T13:37:13;8.70;99.90
19206;DHT22;59358;52.134;5.596;2023-01-31T13:39:48;8.60;99.90
19206;DHT22;59358;52.134;5.596;2023-01-31T13:42:16;8.70;99.90
19206;DHT22;59358;52.134;5.596;2023-01-31T13:44:45;8.80;99.90
19206;DHT22;59358;52.134;5.596;2023-01-31T13:47:15;8.90;99.90
19206;DHT22;59358;52.134;5.596;2023-01-31T13:49:47;9.00;99.90
19206;DHT22;59358;52.134;5.596;2023-01-31T13:52:20;9.20;99.90
19206;DHT22;59358;52.134;5.596;2023-01-31T13:54:51;9.20;99.90
19206;DHT22;59358;52.134;5.596;2023-01-31T13:57:23;9.20;99.90
19206;DHT22;59358;52.134;5.596;2023-01-31T13:59:52;9.30;99.90
19206;DHT22;59358;52.134;5.596;2023-01-31T14:02:20;9.40;99.90
19206;DHT22;59358;52.134;5.596;2023-01-31T14:04:47;9.20;99.90
19206;DHT22;59358;52.134;5.596;2023-01-31T14:07:18;9.20;99.90
19206;DHT22;59358;52.134;5.596;2023-01-31T14:12:47;9.10;99.90
19206;DHT22;59358;52.134;5.596;2023-01-31T14:15:45;9.10;99.90
19206;DHT22;59358;52.134;5.596;2023-01-31T14:18:12;9.10;99.90
19206;DHT22;59358;52.134;5.596;2023-01-31T14:24:54;9.30;99.90
19206;DHT22;59358;52.134;5.596;2023-01-31T14:27:24;9.40;99.90
19206;DHT22;59358;52.134;5.596;2023-01-31T14:29:56;9.40;99.90
19206;DHT22;59358;52.134;5.596;2023-01-31T14:32:28;9.40;99.90
19206;DHT22;59358;52.134;5.596;2023-01-31T14:34:57;9.50;99.90
19206;DHT22;59358;52.134;5.596;2023-01-31T14:37:33;9.40;99.90
19206;DHT22;59358;52.134;5.596;2023-01-31T14:40:21;9.50;99.90
19206;DHT22;59358;52.134;5.596;2023-01-31T14:45:51;9.40;99.90
19206;DHT22;59358;52.134;5.596;2023-01-31T14:48:47;9.40;99.90
19206;DHT22;59358;52.134;5.596;2023-01-31T14:51:26;9.40;99.90
19206;DHT22;59358;52.134;5.596;2023-01-31T14:57:11;9.40;99.90
19206;DHT22;59358;52.134;5.596;2023-01-31T14:59:51;9.30;99.90
19206;DHT22;59358;52.134;5.596;2023-01-31T15:02:39;9.30;99.90
19206;DHT22;59358;52.134;5.596;2023-01-31T15:05:10;9.30;99.90
19206;DHT22;59358;52.134;5.596;2023-01-31T15:07:56;9.30;99.90
19206;DHT22;59358;52.134;5.596;2023-01-31T15:10:52;9.30;99.90
19206;DHT22;59358;52.134;5.596;2023-01-31T15:13:35;9.30;99.90
19206;DHT22;59358;52.134;5.596;2023-01-31T15:16:05;9.30;99.90
19206;DHT22;59358;52.134;5.596;2023-01-31T15:18:33;9.30;99.90
19206;DHT22;59358;52.134;5.596;2023-01-31T15:21:03;9.30;99.90
19206;DHT22;59358;52.134;5.596;2023-01-31T15:23:34;9.30;99.90
19206;DHT22;59358;52.134;5.596;2023-01-31T15:26:01;9.20;99.90
19206;DHT22;59358;52.134;5.596;2023-01-31T15:28:32;9.20;99.90
19206;DHT22;59358;52.134;5.596;2023-01-31T15:31:05;9.20;99.90
19206;DHT22;59358;52.134;5.596;2023-01-31T15:33:36;9.30;99.90
19206;DHT22;59358;52.134;5.596;2023-01-31T15:36:12;9.30;99.90
19206;DHT22;59358;52.134;5.596;2023-01-31T15:38:48;9.30;99.90
19206;DHT22;59358;52.134;5.596;2023-01-31T15:41:19;9.30;99.90
19206;DHT22;59358;52.134;5.596;2023-01-31T15:43:48;9.20;99.90
19206;DHT22;59358;52.134;5.596;2023-01-31T15:46:29;9.20;99.90
19206;DHT22;59358;52.134;5.596;2023-01-31T15:48:57;9.20;99.90
19206;DHT22;59358;52.134;5.596;2023-01-31T15:51:27;9.20;99.90
19206;DHT22;59358;52.134;5.596;2023-01-31T15:54:02;9.10;99.90
19206;DHT22;59358;52.134;5.596;2023-01-31T15:56:30;9.10;99.90
19206;DHT22;59358;52.134;5.596;2023-01-31T15:58:57;9.10;99.90
19206;DHT22;59358;52.134;5.596;2023-01-31T16:01:27;9.00;99.90
19206;DHT22;59358;52.134;5.596;2023-01-31T16:03:57;9.00;99.90
19206;DHT22;59358;52.134;5.596;2023-01-31T16:06:26;9.00;99.90
19206;DHT22;59358;52.134;5.596;2023-01-31T16:08:56;9.00;99.90
19206;DHT22;59358;52.134;5.596;2023-01-31T16:11:25;9.00;99.90
19206;DHT22;59358;52.134;5.596;2023-01-31T16:13:54;8.90;99.90
19206;DHT22;59358;52.134;5.596;2023-01-31T16:16:22;8.90;99.90
19206;DHT22;59358;52.134;5.596;2023-01-31T16:18:54;8.90;99.90
19206;DHT22;59358;52.134;5.596;2023-01-31T16:21:25;8.90;99.90
19206;DHT22;59358;52.134;5.596;2023-01-31T16:23:57;8.90;99.90
19206;DHT22;59358;52.134;5.596;2023-01-31T16:26:27;8.80;99.90
19206;DHT22;59358;52.134;5.596;2023-01-31T16:28:57;8.70;99.90
19206;DHT22;59358;52.134;5.596;2023-01-31T16:31:27;8.70;99.90
19206;DHT22;59358;52.134;5.596;2023-01-31T16:33:59;8.70;99.90